Welcome to this demonstration website - Welkom op de demo website - Bienvenue sur ce site de démonstration - Willkommen auf dieser Demonstration Website


my webcam  My webcam


thunder radar more information blitzortung!


rain radar more information rain snow radar


visit our other weather sites:

Template documentation
and downloads

And another site



weather underground history page text

daily summary for july 24, 2017 units:  metric    english   both
« previous day
next day »
daily weekly monthly yearly custom
  current: high: low: average:
temperature: 17.9 °C 22.1 °C 14.3 °C 17.3 °C
dew point: 16.7 °C 16.7 °C 13.3 °C 14.7 °C
humidity: 91 % 94 % 64 % 85 %
wind speed: 0.0 km/h 4.8 km/h 0.0 km/h 0.6 km/h
wind gust: 1.6 km/h 16.1 km/h - -
wind:Calm - - SSW
pressure: 1010.7 hPa 1012.4 hPa 1009.4 hPa -
precipitation: 2.3 mm      
Historical Graphs
 
 
tabular data for july 24, 2017
time temperature dew point pressure wind wind speed wind gust humidity rainfall rate (hourly)
00:09 16.4 °C 13.9 °C 1012.4 hPa SW 1.6 km/h 4.8 km/h 85 % 0.0 mm
00:24 16.4 °C 13.9 °C 1012.4 hPa SW 1.6 km/h 6.4 km/h 85 % 0.0 mm
00:39 16.3 °C 13.9 °C 1012.1 hPa Calm   4.8 km/h 86 % 0.0 mm
00:54 16.3 °C 13.9 °C 1012.1 hPa Calm   4.8 km/h 86 % 0.0 mm
01:09 16.3 °C 13.9 °C 1012.1 hPa SW 1.6 km/h 4.8 km/h 86 % 0.0 mm
01:24 16.2 °C 13.9 °C 1011.7 hPa Calm   4.8 km/h 86 % 0.0 mm
01:40 16.2 °C 13.9 °C 1011.7 hPa Calm   4.8 km/h 86 % 0.0 mm
01:54 16.2 °C 13.9 °C 1011.4 hPa Calm   3.2 km/h 86 % 0.0 mm
02:09 16.1 °C 13.9 °C 1011.4 hPa Calm   6.4 km/h 87 % 0.0 mm
02:24 16.0 °C 13.9 °C 1011.1 hPa Calm   6.4 km/h 87 % 0.0 mm
02:39 16.0 °C 13.9 °C 1011.1 hPa Calm   4.8 km/h 87 % 0.0 mm
02:54 15.9 °C 13.9 °C 1011.1 hPa Calm   4.8 km/h 88 % 0.0 mm
03:09 15.9 °C 13.9 °C 1011.1 hPa Calm   6.4 km/h 88 % 0.0 mm
03:24 15.8 °C 13.9 °C 1010.7 hPa SW 1.6 km/h 1.6 km/h 89 % 0.3 mm
03:39 15.7 °C 13.9 °C 1010.7 hPa Calm   3.2 km/h 89 % 0.3 mm
03:54 15.6 °C 13.9 °C 1010.4 hPa Calm   1.6 km/h 90 % 0.3 mm
04:09 15.4 °C 13.9 °C 1010.4 hPa Calm   3.2 km/h 90 % 0.0 mm
04:24 15.3 °C 13.9 °C 1010.4 hPa SW 1.6 km/h 3.2 km/h 91 % 0.0 mm
04:39 15.3 °C 13.9 °C 1010.0 hPa Calm   4.8 km/h 91 % 0.0 mm
04:54 15.2 °C 13.9 °C 1010.0 hPa Calm   4.8 km/h 91 % 0.0 mm
05:10 15.1 °C 13.9 °C 1010.0 hPa Calm   4.8 km/h 91 % 0.0 mm
05:25 15.0 °C 13.9 °C 1009.7 hPa SSW 1.6 km/h 6.4 km/h 92 % 0.0 mm
05:40 14.8 °C 13.3 °C 1010.0 hPa SSW 1.6 km/h 6.4 km/h 92 % 0.0 mm
05:55 14.7 °C 13.3 °C 1009.7 hPa Calm   4.8 km/h 92 % 0.0 mm
06:10 14.5 °C 13.3 °C 1009.7 hPa Calm   3.2 km/h 92 % 0.0 mm
06:25 14.4 °C 13.3 °C 1009.7 hPa Calm   3.2 km/h 92 % 0.3 mm
06:40 14.3 °C 13.3 °C 1010.0 hPa Calm   3.2 km/h 93 % 0.3 mm
06:55 14.4 °C 13.3 °C 1009.7 hPa Calm   4.8 km/h 93 % 0.3 mm
07:10 14.5 °C 13.3 °C 1009.7 hPa Calm   8.0 km/h 93 % 0.3 mm
07:25 14.6 °C 13.3 °C 1009.7 hPa Calm   6.4 km/h 93 % 0.0 mm
07:40 14.8 °C 13.9 °C 1009.4 hPa SW 3.2 km/h 4.8 km/h 94 % 0.0 mm
07:55 15.1 °C 13.9 °C 1009.4 hPa SW 3.2 km/h 6.4 km/h 94 % 0.0 mm
08:10 15.4 °C 14.4 °C 1009.4 hPa Calm   4.8 km/h 94 % 0.0 mm
08:25 15.6 °C 14.4 °C 1009.4 hPa Calm   6.4 km/h 94 % 0.3 mm
08:40 15.8 °C 15.0 °C 1009.7 hPa Calm   3.2 km/h 94 % 0.5 mm
08:55 16.0 °C 15.0 °C 1009.7 hPa Calm   4.8 km/h 94 % 0.5 mm
09:10 15.9 °C 15.0 °C 1009.7 hPa SW 1.6 km/h 6.4 km/h 94 % 0.5 mm
09:25 15.9 °C 15.0 °C 1009.7 hPa SW 3.2 km/h 8.0 km/h 94 % 0.5 mm
09:41 16.1 °C 15.0 °C 1009.7 hPa SW 4.8 km/h 9.7 km/h 94 % 0.0 mm
09:55 16.0 °C 15.0 °C 1009.7 hPa Calm   12.9 km/h 93 % 0.0 mm
10:10 17.2 °C 16.1 °C 1009.7 hPa Calm   11.3 km/h 93 % 0.0 mm
10:25 18.4 °C 16.7 °C 1010.0 hPa SW 1.6 km/h 8.0 km/h 88 % 0.0 mm
10:40 19.4 °C 16.1 °C 1009.7 hPa Calm   4.8 km/h 80 % 0.0 mm
10:55 19.2 °C 15.0 °C 1010.0 hPa Calm   4.8 km/h 78 % 0.0 mm
11:10 19.2 °C 15.0 °C 1010.0 hPa Calm   4.8 km/h 78 % 0.0 mm
11:25 20.1 °C 15.6 °C 1010.0 hPa Calm   6.4 km/h 76 % 0.0 mm
11:40 19.6 °C 15.0 °C 1010.0 hPa Calm   3.2 km/h 76 % 0.0 mm
11:55 18.8 °C 15.0 °C 1010.0 hPa Calm   3.2 km/h 78 % 0.0 mm
12:10 18.3 °C 15.0 °C 1010.0 hPa Calm   6.4 km/h 81 % 0.0 mm
12:25 18.1 °C 15.6 °C 1010.0 hPa Calm   12.9 km/h 84 % 0.0 mm
12:40 18.9 °C 16.7 °C 1010.0 hPa Calm   12.9 km/h 86 % 0.0 mm
12:55 18.8 °C 16.1 °C 1009.7 hPa SW 1.6 km/h 4.8 km/h 84 % 0.0 mm
13:10 18.6 °C 15.6 °C 1009.7 hPa Calm   1.6 km/h 82 % 0.0 mm
13:25 18.6 °C 15.0 °C 1009.7 hPa Calm   8.0 km/h 81 % 0.0 mm
13:40 19.6 °C 16.1 °C 1009.7 hPa Calm   8.0 km/h 80 % 0.0 mm
13:55 20.7 °C 15.0 °C 1009.7 hPa SW 1.6 km/h 16.1 km/h 71 % 0.0 mm
14:10 21.2 °C 15.6 °C 1010.0 hPa South 1.6 km/h 6.4 km/h 71 % 0.0 mm
14:25 21.0 °C 16.1 °C 1010.0 hPa Calm   1.6 km/h 73 % 0.3 mm
14:40 20.8 °C 15.0 °C 1010.0 hPa Calm   6.4 km/h 70 % 0.3 mm
14:55 20.6 °C 15.0 °C 1010.0 hPa Calm   6.4 km/h 71 % 0.3 mm
15:10 20.6 °C 15.0 °C 1010.0 hPa ESE 1.6 km/h 6.4 km/h 70 % 0.3 mm
15:25 21.5 °C 16.7 °C 1010.0 hPa Calm   3.2 km/h 73 % 0.0 mm
15:41 21.1 °C 14.4 °C 1010.0 hPa Calm   8.0 km/h 67 % 0.0 mm
15:56 21.3 °C 15.6 °C 1010.0 hPa Calm   6.4 km/h 71 % 0.0 mm
16:11 22.1 °C 15.0 °C 1010.0 hPa East 1.6 km/h 8.0 km/h 64 % 0.0 mm
16:26 20.2 °C 14.4 °C 1010.4 hPa ENE 4.8 km/h 14.5 km/h 69 % 0.0 mm
16:41 18.3 °C 15.0 °C 1010.7 hPa Calm   4.8 km/h 81 % 0.3 mm
16:56 17.3 °C 15.0 °C 1011.1 hPa Calm   11.3 km/h 85 % 0.5 mm
17:11 17.2 °C 15.0 °C 1010.7 hPa Calm   1.6 km/h 88 % 0.8 mm
17:26 17.5 °C 16.1 °C 1010.7 hPa Calm   3.2 km/h 90 % 0.8 mm
17:41 17.9 °C 16.1 °C 1010.7 hPa Calm   1.6 km/h 90 % 0.5 mm
17:56 18.1 °C 16.1 °C 1011.1 hPa Calm   1.6 km/h 89 % 0.5 mm
18:11 18.0 °C 16.1 °C 1011.1 hPa Calm   1.6 km/h 89 % 0.5 mm
18:26 17.8 °C 16.1 °C 1011.1 hPa Calm   1.6 km/h 89 % 0.5 mm
18:41 17.9 °C 16.7 °C 1010.7 hPa Calm   1.6 km/h 91 % 0.5 mm
Demo MeteobridgePro
compliments of Weather Underground - 2 mb

script developed by  Jim McMurry - jmcmurry@mwt.net adapted for the template by  Wim van der Kuil - Leuven-Template.eu

you find our weather info also at:

Het Weer Aktueel

UK Metoffice

European Weather Network

WeatherCloud

Weather Underground

benelux weather network

AWEKAS

WeatherlinkIP

Citizen Weather Observer Program (CWOP)

HAMweather, WeatherForYou, PWS Weather

equipment we use:

weather-station
Davis VP2+
Meteostick connected

weather-program
Meteobridge

weather-server
MeteobridgePro

Davis VP2+<br />Meteostick connected

Meteobridge

MeteobridgePro